sensor_id;sensor_type;location;lat;lon;timestamp;temperature;humidity
5136;DHT22;2586;48.710;9.202;2023-05-17T00:00:56;7.70;1.00
5136;DHT22;2586;48.710;9.202;2023-05-17T00:03:22;7.70;99.90
5136;DHT22;2586;48.710;9.202;2023-05-17T00:05:47;7.70;99.90
5136;DHT22;2586;48.710;9.202;2023-05-17T00:08:13;7.70;99.90
5136;DHT22;2586;48.710;9.202;2023-05-17T00:10:39;7.60;99.90
5136;DHT22;2586;48.710;9.202;2023-05-17T00:13:04;7.60;1.00
5136;DHT22;2586;48.710;9.202;2023-05-17T00:15:30;7.50;99.90
5136;DHT22;2586;48.710;9.202;2023-05-17T00:17:55;7.50;1.00
5136;DHT22;2586;48.710;9.202;2023-05-17T00:20:21;7.50;1.00
5136;DHT22;2586;48.710;9.202;2023-05-17T00:22:47;7.50;1.00
5136;DHT22;2586;48.710;9.202;2023-05-17T00:25:12;7.40;1.00
5136;DHT22;2586;48.710;9.202;2023-05-17T00:27:38;7.40;1.00
5136;DHT22;2586;48.710;9.202;2023-05-17T00:30:04;7.40;1.00
5136;DHT22;2586;48.710;9.202;2023-05-17T00:32:30;7.30;1.00
5136;DHT22;2586;48.710;9.202;2023-05-17T00:34:55;7.30;1.00
5136;DHT22;2586;48.710;9.202;2023-05-17T00:37:21;7.30;1.00
5136;DHT22;2586;48.710;9.202;2023-05-17T00:39:47;7.30;1.00
5136;DHT22;2586;48.710;9.202;2023-05-17T00:42:13;7.20;1.00
5136;DHT22;2586;48.710;9.202;2023-05-17T00:44:39;7.20;1.00
5136;DHT22;2586;48.710;9.202;2023-05-17T00:47:05;7.30;1.00
5136;DHT22;2586;48.710;9.202;2023-05-17T00:49:30;7.20;1.00
5136;DHT22;2586;48.710;9.202;2023-05-17T00:51:57;7.30;1.00
5136;DHT22;2586;48.710;9.202;2023-05-17T00:54:24;7.20;1.00
5136;DHT22;2586;48.710;9.202;2023-05-17T00:56:51;7.20;1.00
5136;DHT22;2586;48.710;9.202;2023-05-17T00:59:17;7.20;1.00
5136;DHT22;2586;48.710;9.202;2023-05-17T01:01:43;7.30;1.00
5136;DHT22;2586;48.710;9.202;2023-05-17T01:04:09;7.30;1.00
5136;DHT22;2586;48.710;9.202;2023-05-17T01:06:35;7.30;1.00
5136;DHT22;2586;48.710;9.202;2023-05-17T01:09:02;7.30;49.40
5136;DHT22;2586;48.710;9.202;2023-05-17T01:16:59;7.30;1.00
5136;DHT22;2586;48.710;9.202;2023-05-17T01:22:32;7.30;1.00
5136;DHT22;2586;48.710;9.202;2023-05-17T01:28:03;7.20;1.00
5136;DHT22;2586;48.710;9.202;2023-05-17T01:30:31;7.20;1.00
5136;DHT22;2586;48.710;9.202;2023-05-17T01:32:58;7.20;1.00
5136;DHT22;2586;48.710;9.202;2023-05-17T01:35:25;7.20;1.00
5136;DHT22;2586;48.710;9.202;2023-05-17T01:37:53;7.20;1.00
5136;DHT22;2586;48.710;9.202;2023-05-17T01:40:19;7.20;1.00
5136;DHT22;2586;48.710;9.202;2023-05-17T01:42:49;7.20;1.00
5136;DHT22;2586;48.710;9.202;2023-05-17T01:45:22;7.20;1.00
5136;DHT22;2586;48.710;9.202;2023-05-17T01:50:23;7.10;1.00
5136;DHT22;2586;48.710;9.202;2023-05-17T01:52:54;7.10;1.00
5136;DHT22;2586;48.710;9.202;2023-05-17T01:58:24;7.10;1.00
5136;DHT22;2586;48.710;9.202;2023-05-17T02:00:53;7.10;59.80
5136;DHT22;2586;48.710;9.202;2023-05-17T02:03:20;7.10;9.30
5136;DHT22;2586;48.710;9.202;2023-05-17T02:05:46;7.10;99.90
5136;DHT22;2586;48.710;9.202;2023-05-17T02:08:12;7.10;1.00
5136;DHT22;2586;48.710;9.202;2023-05-17T02:10:38;7.00;20.00
5136;DHT22;2586;48.710;9.202;2023-05-17T02:13:03;7.00;99.90
5136;DHT22;2586;48.710;9.202;2023-05-17T02:15:29;7.00;27.40
5136;DHT22;2586;48.710;9.202;2023-05-17T02:17:55;6.90;99.90
5136;DHT22;2586;48.710;9.202;2023-05-17T02:20:21;6.90;32.30
5136;DHT22;2586;48.710;9.202;2023-05-17T02:22:46;6.90;99.90
5136;DHT22;2586;48.710;9.202;2023-05-17T02:25:12;6.90;99.90
5136;DHT22;2586;48.710;9.202;2023-05-17T02:27:37;6.90;99.90
5136;DHT22;2586;48.710;9.202;2023-05-17T02:30:04;6.80;99.90
5136;DHT22;2586;48.710;9.202;2023-05-17T02:32:30;6.80;99.90
5136;DHT22;2586;48.710;9.202;2023-05-17T02:34:56;6.80;99.90
5136;DHT22;2586;48.710;9.202;2023-05-17T02:37:21;6.80;1.00
5136;DHT22;2586;48.710;9.202;2023-05-17T02:39:47;6.80;99.90
5136;DHT22;2586;48.710;9.202;2023-05-17T02:42:13;6.70;99.90
5136;DHT22;2586;48.710;9.202;2023-05-17T02:44:38;6.60;99.90
5136;DHT22;2586;48.710;9.202;2023-05-17T02:47:04;6.60;99.90
5136;DHT22;2586;48.710;9.202;2023-05-17T02:49:30;6.50;99.90
5136;DHT22;2586;48.710;9.202;2023-05-17T02:51:55;6.60;1.00
5136;DHT22;2586;48.710;9.202;2023-05-17T02:54:21;6.50;99.90
5136;DHT22;2586;48.710;9.202;2023-05-17T02:56:46;6.50;1.00
5136;DHT22;2586;48.710;9.202;2023-05-17T02:59:12;6.40;1.00
5136;DHT22;2586;48.710;9.202;2023-05-17T03:01:38;6.40;1.00
5136;DHT22;2586;48.710;9.202;2023-05-17T03:04:03;6.40;1.00
5136;DHT22;2586;48.710;9.202;2023-05-17T03:06:29;6.40;99.90
5136;DHT22;2586;48.710;9.202;2023-05-17T03:08:57;6.40;1.00
5136;DHT22;2586;48.710;9.202;2023-05-17T03:11:23;6.30;1.00
5136;DHT22;2586;48.710;9.202;2023-05-17T03:13:52;6.20;1.00
5136;DHT22;2586;48.710;9.202;2023-05-17T03:16:17;6.10;99.90
5136;DHT22;2586;48.710;9.202;2023-05-17T03:18:43;6.10;99.90
5136;DHT22;2586;48.710;9.202;2023-05-17T03:21:09;6.10;99.90
5136;DHT22;2586;48.710;9.202;2023-05-17T03:23:35;6.10;1.00
5136;DHT22;2586;48.710;9.202;2023-05-17T03:26:00;6.10;1.00
5136;DHT22;2586;48.710;9.202;2023-05-17T03:28:26;6.10;97.20
5136;DHT22;2586;48.710;9.202;2023-05-17T03:30:52;6.00;99.60
5136;DHT22;2586;48.710;9.202;2023-05-17T03:33:18;6.00;99.90
5136;DHT22;2586;48.710;9.202;2023-05-17T03:35:44;6.00;99.90
5136;DHT22;2586;48.710;9.202;2023-05-17T03:38:13;5.90;99.90
5136;DHT22;2586;48.710;9.202;2023-05-17T03:40:38;5.90;99.90
5136;DHT22;2586;48.710;9.202;2023-05-17T03:43:04;5.90;1.00
5136;DHT22;2586;48.710;9.202;2023-05-17T03:45:30;5.90;1.00
5136;DHT22;2586;48.710;9.202;2023-05-17T03:47:55;5.80;99.90
5136;DHT22;2586;48.710;9.202;2023-05-17T03:50:21;5.60;1.00
5136;DHT22;2586;48.710;9.202;2023-05-17T03:52:47;5.90;1.00
5136;DHT22;2586;48.710;9.202;2023-05-17T03:55:12;5.90;1.00
5136;DHT22;2586;48.710;9.202;2023-05-17T03:57:38;5.80;1.00
5136;DHT22;2586;48.710;9.202;2023-05-17T04:00:04;5.60;98.80
5136;DHT22;2586;48.710;9.202;2023-05-17T04:02:37;5.70;99.90
5136;DHT22;2586;48.710;9.202;2023-05-17T04:05:02;5.60;1.00
5136;DHT22;2586;48.710;9.202;2023-05-17T04:07:28;5.50;1.00
5136;DHT22;2586;48.710;9.202;2023-05-17T04:09:55;5.40;99.60
5136;DHT22;2586;48.710;9.202;2023-05-17T04:12:24;5.40;99.90
5136;DHT22;2586;48.710;9.202;2023-05-17T04:14:50;5.40;1.00
5136;DHT22;2586;48.710;9.202;2023-05-17T04:17:15;5.40;99.90
5136;DHT22;2586;48.710;9.202;2023-05-17T04:19:41;5.40;99.90
5136;DHT22;2586;48.710;9.202;2023-05-17T04:22:06;5.30;1.00
5136;DHT22;2586;48.710;9.202;2023-05-17T04:24:32;5.30;83.20
5136;DHT22;2586;48.710;9.202;2023-05-17T04:26:58;5.30;99.90
5136;DHT22;2586;48.710;9.202;2023-05-17T04:29:24;5.40;1.00
5136;DHT22;2586;48.710;9.202;2023-05-17T04:31:50;5.30;1.00
5136;DHT22;2586;48.710;9.202;2023-05-17T04:34:15;5.30;99.90
5136;DHT22;2586;48.710;9.202;2023-05-17T04:36:41;5.40;99.90
5136;DHT22;2586;48.710;9.202;2023-05-17T04:39:06;5.50;99.90
5136;DHT22;2586;48.710;9.202;2023-05-17T04:41:32;5.50;1.00
5136;DHT22;2586;48.710;9.202;2023-05-17T04:43:57;5.60;99.90
5136;DHT22;2586;48.710;9.202;2023-05-17T04:46:23;5.70;99.90
5136;DHT22;2586;48.710;9.202;2023-05-17T04:48:48;5.80;11.10
5136;DHT22;2586;48.710;9.202;2023-05-17T04:51:14;5.80;1.00
5136;DHT22;2586;48.710;9.202;2023-05-17T04:53:40;5.90;1.00
5136;DHT22;2586;48.710;9.202;2023-05-17T04:56:05;5.90;99.90
5136;DHT22;2586;48.710;9.202;2023-05-17T04:58:31;6.00;1.00
5136;DHT22;2586;48.710;9.202;2023-05-17T05:00:57;6.10;1.00
5136;DHT22;2586;48.710;9.202;2023-05-17T05:03:22;6.30;1.00
5136;DHT22;2586;48.710;9.202;2023-05-17T05:05:48;6.30;61.70
5136;DHT22;2586;48.710;9.202;2023-05-17T05:08:15;6.50;1.00
5136;DHT22;2586;48.710;9.202;2023-05-17T05:10:42;6.50;1.00
5136;DHT22;2586;48.710;9.202;2023-05-17T05:13:07;6.60;1.00
5136;DHT22;2586;48.710;9.202;2023-05-17T05:15:33;6.60;1.00
5136;DHT22;2586;48.710;9.202;2023-05-17T05:17:59;6.70;1.00
5136;DHT22;2586;48.710;9.202;2023-05-17T05:20:24;6.80;99.90
5136;DHT22;2586;48.710;9.202;2023-05-17T05:22:50;6.90;99.90
5136;DHT22;2586;48.710;9.202;2023-05-17T05:25:16;6.90;5.10
5136;DHT22;2586;48.710;9.202;2023-05-17T05:27:41;7.10;1.00
5136;DHT22;2586;48.710;9.202;2023-05-17T05:30:07;7.10;1.00
5136;DHT22;2586;48.710;9.202;2023-05-17T05:32:33;7.10;1.00
5136;DHT22;2586;48.710;9.202;2023-05-17T05:34:59;7.30;1.00
5136;DHT22;2586;48.710;9.202;2023-05-17T05:37:24;7.20;1.00
5136;DHT22;2586;48.710;9.202;2023-05-17T05:39:50;7.30;99.90
5136;DHT22;2586;48.710;9.202;2023-05-17T05:42:15;7.40;99.90
5136;DHT22;2586;48.710;9.202;2023-05-17T05:44:41;7.50;1.00
5136;DHT22;2586;48.710;9.202;2023-05-17T05:47:07;7.50;99.90
5136;DHT22;2586;48.710;9.202;2023-05-17T05:49:32;7.60;99.90
5136;DHT22;2586;48.710;9.202;2023-05-17T05:51:58;7.70;99.90
5136;DHT22;2586;48.710;9.202;2023-05-17T05:54:24;7.80;99.90
5136;DHT22;2586;48.710;9.202;2023-05-17T05:56:49;7.90;99.90
5136;DHT22;2586;48.710;9.202;2023-05-17T05:59:15;8.00;99.90
5136;DHT22;2586;48.710;9.202;2023-05-17T06:01:41;7.90;99.90
5136;DHT22;2586;48.710;9.202;2023-05-17T06:04:06;7.90;99.90
5136;DHT22;2586;48.710;9.202;2023-05-17T06:06:32;8.00;99.90
5136;DHT22;2586;48.710;9.202;2023-05-17T06:08:58;8.10;1.00
5136;DHT22;2586;48.710;9.202;2023-05-17T06:11:24;8.10;31.00
5136;DHT22;2586;48.710;9.202;2023-05-17T06:13:50;8.10;19.00
5136;DHT22;2586;48.710;9.202;2023-05-17T06:16:15;8.20;1.00
5136;DHT22;2586;48.710;9.202;2023-05-17T06:18:41;8.20;1.00
5136;DHT22;2586;48.710;9.202;2023-05-17T06:21:06;8.40;99.90
5136;DHT22;2586;48.710;9.202;2023-05-17T06:23:32;8.50;1.00
5136;DHT22;2586;48.710;9.202;2023-05-17T06:25:58;8.60;1.00
5136;DHT22;2586;48.710;9.202;2023-05-17T06:28:23;8.60;1.00
5136;DHT22;2586;48.710;9.202;2023-05-17T06:30:49;8.70;1.00
5136;DHT22;2586;48.710;9.202;2023-05-17T06:33:14;8.70;1.00
5136;DHT22;2586;48.710;9.202;2023-05-17T06:35:40;8.70;1.00
5136;DHT22;2586;48.710;9.202;2023-05-17T06:38:05;8.80;1.00
5136;DHT22;2586;48.710;9.202;2023-05-17T06:40:31;8.80;1.00
5136;DHT22;2586;48.710;9.202;2023-05-17T06:42:56;8.80;1.00
5136;DHT22;2586;48.710;9.202;2023-05-17T06:45:22;8.80;1.00
5136;DHT22;2586;48.710;9.202;2023-05-17T06:47:48;8.90;1.00
5136;DHT22;2586;48.710;9.202;2023-05-17T06:50:13;9.00;1.00
5136;DHT22;2586;48.710;9.202;2023-05-17T06:52:39;9.00;1.00
5136;DHT22;2586;48.710;9.202;2023-05-17T06:55:05;9.10;1.00
5136;DHT22;2586;48.710;9.202;2023-05-17T06:57:31;9.20;1.00
5136;DHT22;2586;48.710;9.202;2023-05-17T06:59:57;9.30;99.90
5136;DHT22;2586;48.710;9.202;2023-05-17T07:02:23;9.40;99.90
5136;DHT22;2586;48.710;9.202;2023-05-17T07:04:48;9.60;99.90
5136;DHT22;2586;48.710;9.202;2023-05-17T07:07:14;9.60;99.90
5136;DHT22;2586;48.710;9.202;2023-05-17T07:09:39;9.70;99.90
5136;DHT22;2586;48.710;9.202;2023-05-17T07:12:05;9.80;99.90
5136;DHT22;2586;48.710;9.202;2023-05-17T07:14:31;9.70;99.90
5136;DHT22;2586;48.710;9.202;2023-05-17T07:16:57;9.80;99.90
5136;DHT22;2586;48.710;9.202;2023-05-17T07:19:23;9.90;1.00
5136;DHT22;2586;48.710;9.202;2023-05-17T07:21:50;9.90;99.90
5136;DHT22;2586;48.710;9.202;2023-05-17T07:24:16;9.90;99.90
5136;DHT22;2586;48.710;9.202;2023-05-17T07:26:42;9.90;99.90
5136;DHT22;2586;48.710;9.202;2023-05-17T07:29:07;10.00;99.90
5136;DHT22;2586;48.710;9.202;2023-05-17T07:31:33;10.00;99.90
5136;DHT22;2586;48.710;9.202;2023-05-17T07:33:58;10.10;99.90
5136;DHT22;2586;48.710;9.202;2023-05-17T07:36:24;10.30;99.90
5136;DHT22;2586;48.710;9.202;2023-05-17T07:38:51;10.50;99.90
5136;DHT22;2586;48.710;9.202;2023-05-17T07:41:17;10.70;99.90
5136;DHT22;2586;48.710;9.202;2023-05-17T07:43:46;10.80;99.90
5136;DHT22;2586;48.710;9.202;2023-05-17T07:46:12;10.90;99.90
5136;DHT22;2586;48.710;9.202;2023-05-17T07:48:37;10.80;99.90
5136;DHT22;2586;48.710;9.202;2023-05-17T07:51:03;10.80;99.90
5136;DHT22;2586;48.710;9.202;2023-05-17T07:53:28;10.90;99.90
5136;DHT22;2586;48.710;9.202;2023-05-17T07:55:54;11.10;99.90
5136;DHT22;2586;48.710;9.202;2023-05-17T07:58:20;11.40;99.90
5136;DHT22;2586;48.710;9.202;2023-05-17T08:00:45;11.40;99.90
5136;DHT22;2586;48.710;9.202;2023-05-17T08:03:13;11.80;99.90
5136;DHT22;2586;48.710;9.202;2023-05-17T08:05:39;12.00;99.90
5136;DHT22;2586;48.710;9.202;2023-05-17T08:08:05;12.20;99.90
5136;DHT22;2586;48.710;9.202;2023-05-17T08:10:31;12.50;99.90
5136;DHT22;2586;48.710;9.202;2023-05-17T08:12:57;12.70;99.90
5136;DHT22;2586;48.710;9.202;2023-05-17T08:15:23;12.60;99.90
5136;DHT22;2586;48.710;9.202;2023-05-17T08:17:48;13.00;99.90
5136;DHT22;2586;48.710;9.202;2023-05-17T08:20:14;13.40;99.90
5136;DHT22;2586;48.710;9.202;2023-05-17T08:22:40;13.30;99.90
5136;DHT22;2586;48.710;9.202;2023-05-17T08:25:05;13.10;99.90
5136;DHT22;2586;48.710;9.202;2023-05-17T08:27:31;13.40;99.90
5136;DHT22;2586;48.710;9.202;2023-05-17T08:29:57;13.90;99.90
5136;DHT22;2586;48.710;9.202;2023-05-17T08:32:23;14.10;99.90
5136;DHT22;2586;48.710;9.202;2023-05-17T08:34:49;14.10;99.90
5136;DHT22;2586;48.710;9.202;2023-05-17T08:37:17;14.20;96.30
5136;DHT22;2586;48.710;9.202;2023-05-17T08:39:42;14.20;99.30
5136;DHT22;2586;48.710;9.202;2023-05-17T08:42:08;14.30;93.10
5136;DHT22;2586;48.710;9.202;2023-05-17T08:44:34;14.10;84.90
5136;DHT22;2586;48.710;9.202;2023-05-17T08:47:02;14.10;82.30
5136;DHT22;2586;48.710;9.202;2023-05-17T08:49:29;14.30;74.70
5136;DHT22;2586;48.710;9.202;2023-05-17T08:51:59;14.30;85.00
5136;DHT22;2586;48.710;9.202;2023-05-17T08:54:25;13.80;72.90
5136;DHT22;2586;48.710;9.202;2023-05-17T08:56:57;14.30;82.90
5136;DHT22;2586;48.710;9.202;2023-05-17T08:59:25;14.80;65.20
5136;DHT22;2586;48.710;9.202;2023-05-17T09:01:52;15.40;58.00
5136;DHT22;2586;48.710;9.202;2023-05-17T09:04:20;15.80;49.80
5136;DHT22;2586;48.710;9.202;2023-05-17T09:06:46;16.00;27.60
5136;DHT22;2586;48.710;9.202;2023-05-17T09:09:11;15.60;25.50
5136;DHT22;2586;48.710;9.202;2023-05-17T09:11:37;15.70;35.80
5136;DHT22;2586;48.710;9.202;2023-05-17T09:14:04;16.00;23.60
5136;DHT22;2586;48.710;9.202;2023-05-17T09:16:32;16.00;20.10
5136;DHT22;2586;48.710;9.202;2023-05-17T09:18:58;15.00;25.00
5136;DHT22;2586;48.710;9.202;2023-05-17T09:21:26;14.60;22.50
5136;DHT22;2586;48.710;9.202;2023-05-17T09:23:53;14.80;30.60
5136;DHT22;2586;48.710;9.202;2023-05-17T09:26:19;14.90;30.00
5136;DHT22;2586;48.710;9.202;2023-05-17T09:28:46;15.30;28.90
5136;DHT22;2586;48.710;9.202;2023-05-17T09:31:14;15.90;24.60
5136;DHT22;2586;48.710;9.202;2023-05-17T09:33:46;16.20;30.30
5136;DHT22;2586;48.710;9.202;2023-05-17T09:36:16;15.90;22.90
5136;DHT22;2586;48.710;9.202;2023-05-17T09:38:50;16.50;33.40
5136;DHT22;2586;48.710;9.202;2023-05-17T09:41:16;17.00;12.40
5136;DHT22;2586;48.710;9.202;2023-05-17T09:43:42;17.00;6.70
5136;DHT22;2586;48.710;9.202;2023-05-17T09:46:08;17.50;2.60
5136;DHT22;2586;48.710;9.202;2023-05-17T09:48:37;17.00;1.00
5136;DHT22;2586;48.710;9.202;2023-05-17T09:51:04;16.10;1.00
5136;DHT22;2586;48.710;9.202;2023-05-17T09:53:32;15.90;1.00
5136;DHT22;2586;48.710;9.202;2023-05-17T09:56:04;15.80;1.00
5136;DHT22;2586;48.710;9.202;2023-05-17T09:58:35;16.40;1.00
5136;DHT22;2586;48.710;9.202;2023-05-17T10:01:03;16.30;1.00
5136;DHT22;2586;48.710;9.202;2023-05-17T10:03:33;16.50;1.00
5136;DHT22;2586;48.710;9.202;2023-05-17T10:06:01;16.90;1.00
5136;DHT22;2586;48.710;9.202;2023-05-17T10:08:30;16.60;1.00
5136;DHT22;2586;48.710;9.202;2023-05-17T10:11:04;15.90;1.00
5136;DHT22;2586;48.710;9.202;2023-05-17T10:13:35;15.70;1.00
5136;DHT22;2586;48.710;9.202;2023-05-17T10:16:02;15.80;1.00
5136;DHT22;2586;48.710;9.202;2023-05-17T10:18:29;15.70;1.00
5136;DHT22;2586;48.710;9.202;2023-05-17T10:20:55;16.10;1.00
5136;DHT22;2586;48.710;9.202;2023-05-17T10:23:21;16.10;1.00
5136;DHT22;2586;48.710;9.202;2023-05-17T10:25:48;16.60;1.00
5136;DHT22;2586;48.710;9.202;2023-05-17T10:28:16;16.50;1.00
5136;DHT22;2586;48.710;9.202;2023-05-17T10:30:42;16.00;1.00
5136;DHT22;2586;48.710;9.202;2023-05-17T10:33:10;16.10;1.00
5136;DHT22;2586;48.710;9.202;2023-05-17T10:35:37;16.40;1.00
5136;DHT22;2586;48.710;9.202;2023-05-17T10:38:03;16.50;1.00
5136;DHT22;2586;48.710;9.202;2023-05-17T10:40:29;16.80;1.00
5136;DHT22;2586;48.710;9.202;2023-05-17T10:42:56;17.10;1.00
5136;DHT22;2586;48.710;9.202;2023-05-17T10:45:24;17.70;1.00
5136;DHT22;2586;48.710;9.202;2023-05-17T10:47:51;18.00;1.00
5136;DHT22;2586;48.710;9.202;2023-05-17T10:50:25;17.40;1.00
5136;DHT22;2586;48.710;9.202;2023-05-17T10:52:52;17.10;1.00
5136;DHT22;2586;48.710;9.202;2023-05-17T10:55:22;17.50;1.00
5136;DHT22;2586;48.710;9.202;2023-05-17T11:00:40;18.00;1.00
5136;DHT22;2586;48.710;9.202;2023-05-17T11:05:42;18.60;1.00
5136;DHT22;2586;48.710;9.202;2023-05-17T11:08:15;18.40;1.00
5136;DHT22;2586;48.710;9.202;2023-05-17T11:13:53;17.00;1.00
5136;DHT22;2586;48.710;9.202;2023-05-17T11:16:21;16.80;1.00
5136;DHT22;2586;48.710;9.202;2023-05-17T11:18:54;16.60;1.00
5136;DHT22;2586;48.710;9.202;2023-05-17T11:21:21;17.10;1.00
5136;DHT22;2586;48.710;9.202;2023-05-17T11:23:48;17.40;1.00
5136;DHT22;2586;48.710;9.202;2023-05-17T11:26:36;17.20;1.00
5136;DHT22;2586;48.710;9.202;2023-05-17T11:29:06;16.70;1.00
5136;DHT22;2586;48.710;9.202;2023-05-17T11:31:34;16.70;1.00
5136;DHT22;2586;48.710;9.202;2023-05-17T11:34:04;16.60;1.00
5136;DHT22;2586;48.710;9.202;2023-05-17T11:36:29;16.60;1.00
5136;DHT22;2586;48.710;9.202;2023-05-17T11:41:36;16.10;1.00
5136;DHT22;2586;48.710;9.202;2023-05-17T11:44:06;15.90;1.00
5136;DHT22;2586;48.710;9.202;2023-05-17T11:46:33;16.00;1.00
5136;DHT22;2586;48.710;9.202;2023-05-17T11:48:59;16.00;1.00
5136;DHT22;2586;48.710;9.202;2023-05-17T11:51:26;15.80;1.00
5136;DHT22;2586;48.710;9.202;2023-05-17T11:53:55;15.60;1.00
5136;DHT22;2586;48.710;9.202;2023-05-17T11:56:22;15.70;1.00
5136;DHT22;2586;48.710;9.202;2023-05-17T11:58:50;15.60;1.00
5136;DHT22;2586;48.710;9.202;2023-05-17T12:01:17;15.30;1.00
5136;DHT22;2586;48.710;9.202;2023-05-17T12:03:42;15.40;1.00
5136;DHT22;2586;48.710;9.202;2023-05-17T12:06:10;15.20;1.00
5136;DHT22;2586;48.710;9.202;2023-05-17T12:08:38;15.00;1.00
5136;DHT22;2586;48.710;9.202;2023-05-17T12:11:05;14.90;1.00
5136;DHT22;2586;48.710;9.202;2023-05-17T12:13:33;15.00;1.00
5136;DHT22;2586;48.710;9.202;2023-05-17T12:16:00;15.10;1.00
5136;DHT22;2586;48.710;9.202;2023-05-17T12:18:43;15.20;1.00
5136;DHT22;2586;48.710;9.202;2023-05-17T12:21:12;15.10;1.00
5136;DHT22;2586;48.710;9.202;2023-05-17T12:23:46;15.10;1.00
5136;DHT22;2586;48.710;9.202;2023-05-17T12:26:22;15.00;1.00
5136;DHT22;2586;48.710;9.202;2023-05-17T12:28:56;14.90;1.00
5136;DHT22;2586;48.710;9.202;2023-05-17T12:31:31;15.20;1.00
5136;DHT22;2586;48.710;9.202;2023-05-17T12:33:57;15.00;1.00
5136;DHT22;2586;48.710;9.202;2023-05-17T12:36:28;15.00;1.00
5136;DHT22;2586;48.710;9.202;2023-05-17T12:38:55;15.20;1.00
5136;DHT22;2586;48.710;9.202;2023-05-17T12:41:21;15.20;1.00
5136;DHT22;2586;48.710;9.202;2023-05-17T12:43:50;15.20;1.00
5136;DHT22;2586;48.710;9.202;2023-05-17T12:46:18;15.30;1.00
5136;DHT22;2586;48.710;9.202;2023-05-17T12:48:45;15.30;1.00
5136;DHT22;2586;48.710;9.202;2023-05-17T12:51:15;15.20;1.00
5136;DHT22;2586;48.710;9.202;2023-05-17T12:53:50;15.30;1.00
5136;DHT22;2586;48.710;9.202;2023-05-17T12:56:35;15.40;1.00
5136;DHT22;2586;48.710;9.202;2023-05-17T13:01:48;15.60;1.00
5136;DHT22;2586;48.710;9.202;2023-05-17T13:04:16;15.80;1.00
5136;DHT22;2586;48.710;9.202;2023-05-17T13:07:03;15.70;1.00
5136;DHT22;2586;48.710;9.202;2023-05-17T13:09:30;15.70;1.00
5136;DHT22;2586;48.710;9.202;2023-05-17T13:11:58;15.50;1.00
5136;DHT22;2586;48.710;9.202;2023-05-17T13:14:43;15.20;1.00
5136;DHT22;2586;48.710;9.202;2023-05-17T13:17:10;14.60;1.00
5136;DHT22;2586;48.710;9.202;2023-05-17T13:19:37;14.40;1.00
5136;DHT22;2586;48.710;9.202;2023-05-17T13:22:05;14.30;1.00
5136;DHT22;2586;48.710;9.202;2023-05-17T13:24:35;14.20;1.00
5136;DHT22;2586;48.710;9.202;2023-05-17T13:27:01;14.30;1.00
5136;DHT22;2586;48.710;9.202;2023-05-17T13:29:28;14.30;1.00
5136;DHT22;2586;48.710;9.202;2023-05-17T13:31:54;14.30;1.00
5136;DHT22;2586;48.710;9.202;2023-05-17T13:34:20;14.40;1.00
5136;DHT22;2586;48.710;9.202;2023-05-17T13:36:46;14.50;1.00
5136;DHT22;2586;48.710;9.202;2023-05-17T13:39:12;14.60;1.00
5136;DHT22;2586;48.710;9.202;2023-05-17T13:41:38;14.70;1.00
5136;DHT22;2586;48.710;9.202;2023-05-17T13:44:05;14.60;1.00
5136;DHT22;2586;48.710;9.202;2023-05-17T13:46:31;14.60;1.00
5136;DHT22;2586;48.710;9.202;2023-05-17T13:48:56;14.80;1.00
5136;DHT22;2586;48.710;9.202;2023-05-17T13:51:22;14.70;1.00
5136;DHT22;2586;48.710;9.202;2023-05-17T13:53:50;14.70;1.00
5136;DHT22;2586;48.710;9.202;2023-05-17T13:56:15;14.80;1.00
5136;DHT22;2586;48.710;9.202;2023-05-17T13:58:41;14.80;1.00
5136;DHT22;2586;48.710;9.202;2023-05-17T14:01:07;14.80;1.00
5136;DHT22;2586;48.710;9.202;2023-05-17T14:03:32;14.60;1.00
5136;DHT22;2586;48.710;9.202;2023-05-17T14:05:59;14.70;1.00
5136;DHT22;2586;48.710;9.202;2023-05-17T14:08:24;14.70;1.00
5136;DHT22;2586;48.710;9.202;2023-05-17T14:10:50;14.60;1.00
5136;DHT22;2586;48.710;9.202;2023-05-17T14:13:16;14.40;1.00
5136;DHT22;2586;48.710;9.202;2023-05-17T14:15:42;14.40;1.00
5136;DHT22;2586;48.710;9.202;2023-05-17T14:18:08;14.50;1.00
5136;DHT22;2586;48.710;9.202;2023-05-17T14:20:34;14.60;1.00
5136;DHT22;2586;48.710;9.202;2023-05-17T14:23:00;14.70;1.00
5136;DHT22;2586;48.710;9.202;2023-05-17T14:25:26;14.90;1.00
5136;DHT22;2586;48.710;9.202;2023-05-17T14:27:52;14.90;1.00
5136;DHT22;2586;48.710;9.202;2023-05-17T14:30:18;14.90;1.00
5136;DHT22;2586;48.710;9.202;2023-05-17T14:32:45;14.90;1.00
5136;DHT22;2586;48.710;9.202;2023-05-17T14:35:11;14.90;1.00
5136;DHT22;2586;48.710;9.202;2023-05-17T14:37:37;14.90;1.00
5136;DHT22;2586;48.710;9.202;2023-05-17T14:40:04;14.90;1.00
5136;DHT22;2586;48.710;9.202;2023-05-17T14:42:29;14.90;1.00
5136;DHT22;2586;48.710;9.202;2023-05-17T14:44:56;14.90;1.00
5136;DHT22;2586;48.710;9.202;2023-05-17T14:47:21;14.70;1.00
5136;DHT22;2586;48.710;9.202;2023-05-17T14:49:47;14.60;1.00
5136;DHT22;2586;48.710;9.202;2023-05-17T14:52:12;14.50;1.00
5136;DHT22;2586;48.710;9.202;2023-05-17T14:54:39;14.30;1.00
5136;DHT22;2586;48.710;9.202;2023-05-17T14:57:05;14.40;1.00
5136;DHT22;2586;48.710;9.202;2023-05-17T14:59:31;14.60;1.00
5136;DHT22;2586;48.710;9.202;2023-05-17T15:01:57;14.60;1.00
5136;DHT22;2586;48.710;9.202;2023-05-17T15:04:22;15.40;1.00
5136;DHT22;2586;48.710;9.202;2023-05-17T15:06:48;16.90;1.00
5136;DHT22;2586;48.710;9.202;2023-05-17T15:09:16;18.00;1.00
5136;DHT22;2586;48.710;9.202;2023-05-17T15:11:42;19.10;1.00
5136;DHT22;2586;48.710;9.202;2023-05-17T15:14:09;19.50;1.00
5136;DHT22;2586;48.710;9.202;2023-05-17T15:16:35;20.00;1.00
5136;DHT22;2586;48.710;9.202;2023-05-17T15:19:01;20.60;1.00
5136;DHT22;2586;48.710;9.202;2023-05-17T15:21:27;20.90;1.00
5136;DHT22;2586;48.710;9.202;2023-05-17T15:23:53;20.70;1.00
5136;DHT22;2586;48.710;9.202;2023-05-17T15:26:18;20.60;1.00
5136;DHT22;2586;48.710;9.202;2023-05-17T15:28:44;20.10;1.00
5136;DHT22;2586;48.710;9.202;2023-05-17T15:31:10;20.00;1.00
5136;DHT22;2586;48.710;9.202;2023-05-17T15:33:36;19.40;1.00
5136;DHT22;2586;48.710;9.202;2023-05-17T15:36:06;18.70;1.00
5136;DHT22;2586;48.710;9.202;2023-05-17T15:38:32;17.80;1.00
5136;DHT22;2586;48.710;9.202;2023-05-17T15:41:03;17.30;1.00
5136;DHT22;2586;48.710;9.202;2023-05-17T15:43:30;16.40;1.00
5136;DHT22;2586;48.710;9.202;2023-05-17T15:45:56;16.00;1.00
5136;DHT22;2586;48.710;9.202;2023-05-17T15:48:22;15.70;1.00
5136;DHT22;2586;48.710;9.202;2023-05-17T15:50:48;15.30;1.00
5136;DHT22;2586;48.710;9.202;2023-05-17T15:53:13;15.00;1.00
5136;DHT22;2586;48.710;9.202;2023-05-17T15:55:39;14.70;1.00
5136;DHT22;2586;48.710;9.202;2023-05-17T15:58:05;14.60;1.00
5136;DHT22;2586;48.710;9.202;2023-05-17T16:00:34;14.40;1.00
5136;DHT22;2586;48.710;9.202;2023-05-17T16:02:59;14.30;1.00
5136;DHT22;2586;48.710;9.202;2023-05-17T16:05:26;14.20;1.00
5136;DHT22;2586;48.710;9.202;2023-05-17T16:07:52;14.10;1.00
5136;DHT22;2586;48.710;9.202;2023-05-17T16:10:17;14.10;1.00
5136;DHT22;2586;48.710;9.202;2023-05-17T16:12:43;14.20;1.00
5136;DHT22;2586;48.710;9.202;2023-05-17T16:15:09;15.30;1.00
5136;DHT22;2586;48.710;9.202;2023-05-17T16:17:34;17.10;1.00
5136;DHT22;2586;48.710;9.202;2023-05-17T16:20:00;17.60;1.00
5136;DHT22;2586;48.710;9.202;2023-05-17T16:22:25;16.70;1.00
5136;DHT22;2586;48.710;9.202;2023-05-17T16:24:52;15.80;1.00
5136;DHT22;2586;48.710;9.202;2023-05-17T16:27:18;15.10;1.00
5136;DHT22;2586;48.710;9.202;2023-05-17T16:29:44;14.40;1.00
5136;DHT22;2586;48.710;9.202;2023-05-17T16:32:09;15.20;1.00
5136;DHT22;2586;48.710;9.202;2023-05-17T16:34:35;16.60;1.00
5136;DHT22;2586;48.710;9.202;2023-05-17T16:37:01;17.70;1.00
5136;DHT22;2586;48.710;9.202;2023-05-17T16:39:29;17.50;1.00
5136;DHT22;2586;48.710;9.202;2023-05-17T16:41:54;18.00;1.00
5136;DHT22;2586;48.710;9.202;2023-05-17T16:44:20;17.90;1.00
5136;DHT22;2586;48.710;9.202;2023-05-17T16:46:45;17.20;1.00